Time;durP1;ratioP1;P1;durP2;ratioP2;P2;SDS_P1;SDS_P2;PMS_P1;PMS_P2;Temp;Humidity;BMP_temperature;BMP_pressure;BME280_temperature;BME280_humidity;BME280_pressure;Samples;Min_cycle;Max_cycle;Signal;HPM_P1;HPM_P2
2022/05/03 00:01:14;;;;;;;16.37;15.57;;;;;;;-141.02;100.00;55844.97;5094793;28;20190;-79
2022/05/03 00:03:51;;;;;;;17.30;16.50;;;;;;;-141.02;100.00;55844.97;5094669;28;20599;-81
2022/05/03 00:06:30;;;;;;;16.97;16.17;;;;;;;-141.02;100.00;55844.97;5095270;28;20220;-83
2022/05/03 00:09:06;;;;;;;17.53;16.73;;;;;;;-141.02;100.00;55844.97;5094985;28;20185;-79
2022/05/03 00:11:41;;;;;;;16.53;15.73;;;;;;;-141.02;100.00;55844.97;5094798;28;20272;-80
2022/05/03 00:14:17;;;;;;;16.07;15.37;;;;;;;-141.02;100.00;55844.97;5094700;28;20660;-76
2022/05/03 00:16:45;;;;;;;16.53;15.80;;;;;;;-141.02;100.00;55844.97;5095853;28;20217;-81
2022/05/03 00:19:13;;;;;;;16.30;15.60;;;;;;;-141.02;100.00;55844.97;5094814;28;20579;-90
2022/05/03 00:21:40;;;;;;;16.70;15.90;;;;;;;-141.02;100.00;55844.97;5094502;28;20229;-84
2022/05/03 00:24:08;;;;;;;17.57;16.77;;;;;;;-141.02;100.00;55844.97;5094232;28;20204;-77
2022/05/03 00:26:37;;;;;;;19.40;18.50;;;;;;;-141.02;100.00;55844.97;5095044;28;20603;-81
2022/05/03 00:29:05;;;;;;;16.30;15.60;;;;;;;-141.02;100.00;55844.97;5094804;28;20605;-79
2022/05/03 00:31:32;;;;;;;16.40;15.60;;;;;;;-141.02;100.00;55844.97;5094234;28;20194;-79
2022/05/03 00:33:59;;;;;;;17.83;17.03;;;;;;;-141.02;100.00;55844.97;5094534;28;20291;-79
2022/05/03 00:36:26;;;;;;;17.30;16.50;;;;;;;-141.02;100.00;55844.97;5095016;28;20205;-80
2022/05/03 00:38:53;;;;;;;18.20;17.40;;;;;;;-141.02;100.00;55844.97;5095265;28;20642;-79
2022/05/03 00:41:32;;;;;;;17.83;17.03;;;;;;;-141.02;100.00;55844.97;5095149;28;20665;-78
2022/05/03 00:44:55;;;;;;;18.83;17.93;;;;;;;-141.02;100.00;55844.97;5094533;28;20186;-78
2022/05/03 00:46:59;;;;;;;19.20;18.30;;;;;;;-141.02;100.00;55844.97;5093620;28;20236;-80
2022/05/03 00:49:38;;;;;;;18.63;17.73;;;;;;;-141.02;100.00;55844.97;5095162;28;20244;-76
2022/05/03 00:52:10;;;;;;;19.50;18.60;;;;;;;-141.02;100.00;55844.97;5094351;28;20189;-79
2022/05/03 00:54:47;;;;;;;18.70;17.80;;;;;;;-141.02;100.00;55844.97;5093724;28;20236;-79
2022/05/03 00:57:26;;;;;;;19.57;18.63;;;;;;;-141.02;100.00;55844.97;5093596;28;20196;-79
2022/05/03 01:00:06;;;;;;;19.63;18.63;;;;;;;-141.02;100.00;55844.97;5093761;28;20186;-80
2022/05/03 01:02:59;;;;;;;18.57;17.67;;;;;;;-141.02;100.00;55844.97;5093809;28;20186;-79
2022/05/03 01:05:28;;;;;;;16.70;15.90;;;;;;;-141.02;100.00;55844.97;5092558;28;20259;-79
2022/05/03 01:08:04;;;;;;;19.33;18.43;;;;;;;-141.02;100.00;55844.97;5094325;28;20234;-79
2022/05/03 01:10:34;;;;;;;19.27;18.37;;;;;;;-141.02;100.00;55844.97;5095402;28;20192;-78
2022/05/03 01:13:05;;;;;;;18.93;18.03;;;;;;;-141.02;100.00;55844.97;5094889;28;20560;-78
2022/05/03 01:15:34;;;;;;;17.47;16.67;;;;;;;-141.02;100.00;55844.97;5093507;28;20691;-83
2022/05/03 01:18:18;;;;;;;17.73;16.83;;;;;;;-141.02;100.00;55844.97;5094684;28;20291;-79
2022/05/03 01:20:55;;;;;;;18.10;17.30;;;;;;;-141.02;100.00;55844.97;5094388;28;20638;-78
2022/05/03 01:24:03;;;;;;;19.00;18.10;;;;;;;-141.02;100.00;55844.97;5094213;28;20265;-78
2022/05/03 01:27:07;;;;;;;18.00;17.17;;;;;;;-141.02;100.00;55844.97;5092648;28;20237;-79
2022/05/03 01:29:37;;;;;;;17.67;16.77;;;;;;;-141.02;100.00;55844.97;5092905;28;20571;-77
2022/05/03 01:32:06;;;;;;;18.10;17.20;;;;;;;-141.02;100.00;55844.97;5093163;28;20194;-78
2022/05/03 01:34:35;;;;;;;18.70;17.80;;;;;;;-141.02;100.00;55844.97;5093178;28;20199;-79
2022/05/03 01:37:21;;;;;;;16.60;15.80;;;;;;;-141.02;100.00;55844.97;5093268;28;20288;-78
2022/05/03 01:40:03;;;;;;;19.23;18.33;;;;;;;-141.02;100.00;55844.97;5093602;28;20228;-78
2022/05/03 01:42:46;;;;;;;18.17;17.27;;;;;;;-141.02;100.00;55844.97;5093315;28;20189;-77
2022/05/03 01:45:23;;;;;;;18.70;17.80;;;;;;;-141.02;100.00;55844.97;5093550;28;20239;-79
2022/05/03 01:48:06;;;;;;;18.60;17.70;;;;;;;-141.02;100.00;55844.97;5093057;28;20301;-78
2022/05/03 01:50:41;;;;;;;19.03;18.13;;;;;;;-141.02;100.00;55844.97;5093316;28;20186;-79
2022/05/03 01:53:23;;;;;;;19.00;18.10;;;;;;;-141.02;100.00;55844.97;5092866;28;20185;-79
2022/05/03 01:56:23;;;;;;;18.60;17.70;;;;;;;-141.02;100.00;55844.97;5092574;28;20623;-77
2022/05/03 01:59:10;;;;;;;19.73;18.80;;;;;;;-141.02;100.00;55844.97;5092795;28;20221;-78
2022/05/03 02:01:54;;;;;;;19.77;18.77;;;;;;;-141.02;100.00;55844.97;5093217;28;20194;-78
2022/05/03 02:04:49;;;;;;;19.60;18.70;;;;;;;-141.02;100.00;55844.97;5092323;28;20380;-77
2022/05/03 02:07:30;;;;;;;19.50;18.50;;;;;;;-141.02;100.00;55844.97;5093002;28;20217;-78
2022/05/03 02:10:05;;;;;;;17.13;16.33;;;;;;;-141.02;100.00;55844.97;5092957;28;20193;-78
2022/05/03 02:12:33;;;;;;;19.23;18.33;;;;;;;-141.02;100.00;55844.97;5093177;28;20213;-79
2022/05/03 02:15:05;;;;;;;19.37;18.47;;;;;;;-141.02;100.00;55844.97;5092832;28;20692;-79
2022/05/03 02:17:51;;;;;;;19.87;18.87;;;;;;;-141.02;100.00;55844.97;5093314;28;20262;-78
2022/05/03 02:20:42;;;;;;;19.53;18.63;;;;;;;-141.02;100.00;55844.97;5092838;28;20189;-78
2022/05/03 02:23:25;;;;;;;19.10;18.20;;;;;;;-141.02;100.00;55844.97;5092858;28;20570;-78
2022/05/03 02:26:18;;;;;;;20.20;19.20;;;;;;;-141.02;100.00;55844.97;5093056;28;20610;-81
2022/05/03 02:28:49;;;;;;;19.50;18.60;;;;;;;-141.02;100.00;55844.97;5092200;28;20627;-77
2022/05/03 02:31:23;;;;;;;19.17;18.17;;;;;;;-141.02;100.00;55844.97;5092153;28;20719;-76
2022/05/03 02:34:02;;;;;;;19.93;18.93;;;;;;;-141.02;100.00;55844.97;5094686;28;20189;-77
2022/05/03 02:36:31;;;;;;;20.23;19.23;;;;;;;-141.02;100.00;55844.97;5096481;28;20192;-80
2022/05/03 02:39:03;;;;;;;18.30;17.40;;;;;;;-141.02;100.00;55844.97;5096492;28;20197;-77
2022/05/03 02:41:34;;;;;;;20.60;19.60;;;;;;;-141.02;100.00;55844.97;5096796;28;20254;-78
2022/05/03 02:44:03;;;;;;;19.30;18.30;;;;;;;-141.02;100.00;55844.97;5096685;28;20254;-78
2022/05/03 02:46:52;;;;;;;19.57;18.57;;;;;;;-141.02;100.00;55844.97;5095779;28;20308;-80
2022/05/03 02:49:26;;;;;;;20.93;19.83;;;;;;;-141.02;100.00;55844.97;5096352;28;20575;-78
2022/05/03 02:52:03;;;;;;;20.57;19.53;;;;;;;-141.02;100.00;55844.97;5096644;28;20185;-77
2022/05/03 02:54:40;;;;;;;18.90;18.00;;;;;;;-141.02;100.00;55844.97;5095957;28;20254;-77
2022/05/03 02:57:16;;;;;;;19.47;18.47;;;;;;;-141.02;100.00;55844.97;5096097;28;20268;-78
2022/05/03 03:02:53;;;;;;;19.57;18.57;;;;;;;-141.02;100.00;55844.97;5095658;28;20671;-77
2022/05/03 03:05:27;;;;;;;19.17;18.17;;;;;;;-141.02;100.00;55844.97;5095472;28;20290;-76
2022/05/03 03:07:59;;;;;;;17.40;16.50;;;;;;;-141.02;100.00;55844.97;5095420;28;20735;-77
2022/05/03 03:10:32;;;;;;;16.83;16.03;;;;;;;-141.02;100.00;55844.97;5095791;28;20196;-77
2022/05/03 03:13:06;;;;;;;18.60;17.60;;;;;;;-141.02;100.00;55844.97;5095705;28;20192;-79
2022/05/03 03:15:39;;;;;;;17.70;16.80;;;;;;;-141.02;100.00;55844.97;5095933;28;20224;-77
2022/05/03 03:18:12;;;;;;;23.50;22.10;;;;;;;-141.02;100.00;55844.97;5095301;28;20182;-77
2022/05/03 03:20:44;;;;;;;20.67;19.57;;;;;;;-141.02;100.00;55844.97;5095334;28;20567;-78
2022/05/03 03:23:15;;;;;;;17.73;16.83;;;;;;;-141.02;100.00;55844.97;5095374;28;20664;-77
2022/05/03 03:25:44;;;;;;;18.10;17.20;;;;;;;-141.02;100.00;55844.97;5095475;28;20217;-78
2022/05/03 03:28:13;;;;;;;19.20;18.20;;;;;;;-141.02;100.00;55844.97;5094938;28;20669;-78
2022/05/03 03:30:42;;;;;;;18.63;17.63;;;;;;;-141.02;100.00;55844.97;5095433;28;20204;-76
2022/05/03 03:33:10;;;;;;;18.10;17.10;;;;;;;-141.02;100.00;55844.97;5095219;28;20224;-79
2022/05/03 03:35:38;;;;;;;18.20;17.20;;;;;;;-141.02;100.00;55844.97;5095453;28;20298;-78
2022/05/03 03:38:08;;;;;;;17.37;16.47;;;;;;;-141.02;100.00;55844.97;5094884;28;20711;-78
2022/05/03 03:40:36;;;;;;;17.00;16.10;;;;;;;-141.02;100.00;55844.97;5095061;28;20208;-78
2022/05/03 03:43:03;;;;;;;18.80;17.80;;;;;;;-141.02;100.00;55844.97;5094934;28;20225;-77
2022/05/03 03:45:30;;;;;;;17.93;17.00;;;;;;;-141.02;100.00;55844.97;5093935;28;20296;-78
2022/05/03 03:47:58;;;;;;;17.97;17.03;;;;;;;-141.02;100.00;55844.97;5095025;28;20321;-79
2022/05/03 03:50:26;;;;;;;17.77;16.87;;;;;;;-141.02;100.00;55844.97;5095022;28;20281;-77
2022/05/03 03:52:54;;;;;;;18.03;17.03;;;;;;;-141.02;100.00;55844.97;5094850;28;20194;-77
2022/05/03 03:55:23;;;;;;;17.57;16.67;;;;;;;-141.02;100.00;55844.97;5094952;28;20276;-77
2022/05/03 03:57:52;;;;;;;18.00;17.10;;;;;;;-141.02;100.00;55844.97;5094893;28;20226;-77
2022/05/03 04:00:19;;;;;;;17.97;17.07;;;;;;;-141.02;100.00;55844.97;5094455;28;20194;-77
2022/05/03 04:02:47;;;;;;;17.53;16.63;;;;;;;-141.02;100.00;55844.97;5094362;28;20231;-76
2022/05/03 04:05:16;;;;;;;17.30;16.40;;;;;;;-141.02;100.00;55844.97;5094415;28;20228;-77
2022/05/03 04:07:44;;;;;;;17.70;16.80;;;;;;;-141.02;100.00;55844.97;5094217;28;20317;-78
2022/05/03 04:10:11;;;;;;;15.70;14.90;;;;;;;-141.02;100.00;55844.97;5094574;28;20201;-78
2022/05/03 04:12:39;;;;;;;15.40;14.70;;;;;;;-141.02;100.00;55844.97;5094734;28;20288;-78
2022/05/03 04:15:08;;;;;;;15.80;15.00;;;;;;;-141.02;100.00;55844.97;5094202;28;20285;-77
2022/05/03 04:17:35;;;;;;;17.13;16.23;;;;;;;-141.02;100.00;55844.97;5094335;28;20597;-77
2022/05/03 04:20:03;;;;;;;16.67;15.87;;;;;;;-141.02;100.00;55844.97;5094319;28;20229;-78
2022/05/03 04:22:31;;;;;;;16.20;15.40;;;;;;;-141.02;100.00;55844.97;5094453;28;20660;-78
2022/05/03 04:24:58;;;;;;;16.23;15.43;;;;;;;-141.02;100.00;55844.97;5094269;28;20221;-78
2022/05/03 04:27:26;;;;;;;16.07;15.27;;;;;;;-141.02;100.00;55844.97;5094195;28;20277;-78
2022/05/03 04:29:56;;;;;;;14.70;14.10;;;;;;;-141.02;100.00;55844.97;5094173;28;20224;-78
2022/05/03 04:32:23;;;;;;;14.73;14.03;;;;;;;-141.02;100.00;55844.97;5094029;28;20190;-77
2022/05/03 04:34:50;;;;;;;15.10;14.40;;;;;;;-141.02;100.00;55844.97;5094087;28;20202;-78
2022/05/03 04:37:17;;;;;;;15.40;14.70;;;;;;;-141.02;100.00;55844.97;5093670;28;20678;-78
2022/05/03 04:39:44;;;;;;;15.07;14.37;;;;;;;-141.02;100.00;55844.97;5093999;28;20293;-77
2022/05/03 04:42:12;;;;;;;15.47;14.77;;;;;;;-141.02;100.00;55844.97;5093635;28;20196;-79
2022/05/03 04:44:39;;;;;;;15.30;14.60;;;;;;;-141.02;100.00;55844.97;5094656;28;20301;-79
2022/05/03 04:47:08;;;;;;;15.63;14.87;;;;;;;-141.02;100.00;55844.97;5093459;28;20224;-79
2022/05/03 04:49:35;;;;;;;15.60;14.80;;;;;;;-141.02;100.00;55844.97;5093816;28;20190;-79
2022/05/03 04:52:03;;;;;;;15.13;14.43;;;;;;;-141.02;100.00;55844.97;5093511;28;20284;-80
2022/05/03 04:54:30;;;;;;;15.77;14.97;;;;;;;-141.02;100.00;55844.97;5093451;28;20248;-81
2022/05/03 04:57:01;;;;;;;15.30;14.60;;;;;;;-141.02;100.00;55844.97;5094281;28;20255;-79
2022/05/03 04:59:28;;;;;;;15.20;14.50;;;;;;;-141.02;100.00;55844.97;5093547;28;20189;-79
2022/05/03 05:01:55;;;;;;;15.50;14.70;;;;;;;-141.02;100.00;55844.97;5093603;28;20198;-79
2022/05/03 05:04:25;;;;;;;15.30;14.60;;;;;;;-141.02;100.00;55844.97;5093213;28;20657;-80
2022/05/03 05:06:52;;;;;;;15.07;14.37;;;;;;;-141.02;100.00;55844.97;5093201;28;20236;-80
2022/05/03 05:09:19;;;;;;;15.00;14.30;;;;;;;-141.02;100.00;55844.97;5093436;28;20198;-79
2022/05/03 05:11:46;;;;;;;15.80;15.00;;;;;;;-141.02;100.00;55844.97;5093563;28;20225;-79
2022/05/03 05:14:14;;;;;;;17.13;16.25;;;;;;;-141.02;100.00;55844.97;5093408;28;20189;-80
2022/05/03 05:16:41;;;;;;;16.17;15.38;;;;;;;-141.02;100.00;55844.97;5093528;28;20258;-77
2022/05/03 05:19:08;;;;;;;16.38;15.57;;;;;;;-141.02;100.00;55844.97;5093343;28;20220;-80
2022/05/03 05:21:37;;;;;;;17.33;16.42;;;;;;;-141.02;100.00;55844.97;5093117;28;20255;-80
2022/05/03 05:24:10;;;;;;;18.02;17.13;;;;;;;-141.02;100.00;55844.97;5093322;28;20190;-79
2022/05/03 05:26:37;;;;;;;17.00;16.20;;;;;;;-141.02;100.00;55844.97;5094343;28;20186;-79
2022/05/03 05:29:04;;;;;;;17.75;16.85;;;;;;;-141.02;100.00;55844.97;5093183;28;20713;-79
2022/05/03 05:31:31;;;;;;;17.02;16.23;;;;;;;-141.02;100.00;55844.97;5093366;28;20249;-80
2022/05/03 05:33:58;;;;;;;17.63;16.83;;;;;;;-141.02;100.00;55844.97;5092790;28;20281;-82
2022/05/03 05:36:25;;;;;;;17.30;16.50;;;;;;;-141.02;100.00;55844.97;5092946;28;20247;-79
2022/05/03 05:38:53;;;;;;;16.75;16.02;;;;;;;-141.02;100.00;55844.97;5093757;28;20198;-81
2022/05/03 05:41:20;;;;;;;16.60;15.90;;;;;;;-141.02;100.00;55844.97;5092883;28;20193;-78
2022/05/03 05:43:47;;;;;;;17.38;16.58;;;;;;;-141.02;100.00;55844.97;5092877;28;20229;-77
2022/05/03 05:46:15;;;;;;;17.50;16.70;;;;;;;-141.02;100.00;55844.97;5092836;28;20205;-79
2022/05/03 05:48:42;;;;;;;17.52;16.73;;;;;;;-141.02;100.00;55844.97;5092340;28;20233;-79
2022/05/03 05:51:09;;;;;;;18.38;17.42;;;;;;;-141.02;100.00;55844.97;5092441;28;20258;-81
2022/05/03 05:53:35;;;;;;;18.00;17.10;;;;;;;-141.02;100.00;55844.97;5092708;28;20652;-80
2022/05/03 05:56:05;;;;;;;17.40;16.60;;;;;;;-141.02;100.00;55844.97;5092741;28;20197;-81
2022/05/03 05:58:32;;;;;;;17.80;16.90;;;;;;;-141.02;100.00;55844.97;5092910;28;20193;-81
2022/05/03 06:01:00;;;;;;;17.90;17.00;;;;;;;-141.02;100.00;55844.97;5092573;28;20194;-81
2022/05/03 06:03:28;;;;;;;18.20;17.30;;;;;;;-141.02;100.00;55844.97;5092079;28;20232;-78
2022/05/03 06:05:56;;;;;;;17.90;17.00;;;;;;;-141.02;100.00;55844.97;5092729;28;20194;-80
2022/05/03 06:08:23;;;;;;;18.30;17.40;;;;;;;-141.02;100.00;55844.97;5091533;28;20221;-82
2022/05/03 06:10:51;;;;;;;17.48;16.67;;;;;;;-141.02;100.00;55844.97;5092198;28;20254;-79
2022/05/03 06:13:19;;;;;;;18.02;17.13;;;;;;;-141.02;100.00;55844.97;5092134;28;20194;-79
2022/05/03 06:15:48;;;;;;;17.58;16.77;;;;;;;-141.02;100.00;55844.97;5092094;28;20280;-78
2022/05/03 06:18:15;;;;;;;17.80;16.90;;;;;;;-141.02;100.00;55844.97;5092369;28;20194;-81
2022/05/03 06:20:42;;;;;;;17.25;16.45;;;;;;;-141.02;100.00;55844.97;5092405;28;20277;-80
2022/05/03 06:23:09;;;;;;;17.40;16.60;;;;;;;-141.02;100.00;55844.97;5092334;28;20193;-82
2022/05/03 06:25:37;;;;;;;17.55;16.70;;;;;;;-141.02;100.00;55844.97;5092061;28;20653;-82
2022/05/03 06:28:04;;;;;;;17.60;16.80;;;;;;;-141.02;100.00;55844.97;5092143;28;20600;-79
2022/05/03 06:30:32;;;;;;;33.85;29.95;;;;;;;-141.02;100.00;55844.97;5092253;28;20282;-82
2022/05/03 06:32:59;;;;;;;17.48;16.58;;;;;;;-141.02;100.00;55844.97;5092133;28;20194;-80
2022/05/03 06:35:28;;;;;;;17.60;16.70;;;;;;;-141.02;100.00;55844.97;5092211;28;20201;-79
2022/05/03 06:37:55;;;;;;;17.20;16.30;;;;;;;-141.02;100.00;55844.97;5092205;28;20194;-81
2022/05/03 06:40:22;;;;;;;16.90;16.00;;;;;;;-141.02;100.00;55844.97;5092193;28;20198;-80
2022/05/03 06:42:49;;;;;;;18.25;17.05;;;;;;;-141.02;100.00;55844.97;5092059;28;20228;-81
2022/05/03 06:45:16;;;;;;;18.10;16.90;;;;;;;-141.02;100.00;55844.97;5092365;28;20240;-80
2022/05/03 06:47:45;;;;;;;17.95;16.77;;;;;;;-141.02;100.00;55844.97;5091756;28;20780;-78
2022/05/03 06:50:12;;;;;;;18.02;16.92;;;;;;;-141.02;100.00;55844.97;5091839;28;20664;-81
2022/05/03 06:52:39;;;;;;;18.20;17.00;;;;;;;-141.02;100.00;55844.97;5091758;28;20251;-78
2022/05/03 06:55:06;;;;;;;17.63;16.52;;;;;;;-141.02;100.00;55844.97;5092295;28;20224;-81
2022/05/03 06:57:34;;;;;;;17.75;16.65;;;;;;;-141.02;100.00;55844.97;5091806;28;20194;-78
2022/05/03 07:00:05;;;;;;;18.52;17.33;;;;;;;-141.02;100.00;55844.97;5092160;28;20189;-82
2022/05/03 07:02:32;;;;;;;18.50;17.30;;;;;;;-141.02;100.00;55844.97;5092072;28;20200;-81
2022/05/03 07:05:01;;;;;;;17.85;16.75;;;;;;;-141.02;100.00;55844.97;5091719;28;20287;-81
2022/05/03 07:07:29;;;;;;;18.30;17.20;;;;;;;-141.02;100.00;55844.97;5091709;28;20196;-82
2022/05/03 07:09:56;;;;;;;18.05;16.95;;;;;;;-141.02;100.00;55844.97;5091716;28;20200;-82
2022/05/03 07:12:23;;;;;;;18.08;16.98;;;;;;;-141.02;100.00;55844.97;5091637;28;20193;-82
2022/05/03 07:14:50;;;;;;;17.88;16.77;;;;;;;-141.02;100.00;55844.97;5092047;28;20614;-81
2022/05/03 07:22:46;;;;;;;17.85;16.75;;;;;;;-141.02;100.00;55844.97;5095813;28;20192;-81
2022/05/03 07:25:16;;;;;;;18.63;17.52;;;;;;;-141.02;100.00;55844.97;5095551;28;20273;-84
2022/05/03 07:27:45;;;;;;;17.90;16.80;;;;;;;-141.02;100.00;55844.97;5095417;28;20263;-82
2022/05/03 07:30:13;;;;;;;18.00;16.90;;;;;;;-141.02;100.00;55844.97;5095375;28;20194;-84
2022/05/03 07:32:41;;;;;;;21.02;19.52;;;;;;;-141.02;100.00;55844.97;5095860;28;20252;-83
2022/05/03 07:35:09;;;;;;;17.52;16.48;;;;;;;-141.02;100.00;55844.97;5095045;28;20204;-81
2022/05/03 07:37:36;;;;;;;17.60;16.60;;;;;;;-141.02;100.00;55844.97;5095631;28;20194;-81
2022/05/03 07:40:05;;;;;;;18.30;17.20;;;;;;;-141.02;100.00;55844.97;5095364;28;20278;-83
2022/05/03 07:42:32;;;;;;;18.77;17.67;;;;;;;-141.02;100.00;55844.97;5095107;28;20254;-82
2022/05/03 07:44:59;;;;;;;18.63;17.52;;;;;;;-141.02;100.00;55844.97;5094930;28;20236;-84
2022/05/03 07:47:26;;;;;;;18.58;17.48;;;;;;;-141.02;100.00;55844.97;5095122;28;20193;-82
2022/05/03 07:49:53;;;;;;;19.08;17.95;;;;;;;-141.02;100.00;55844.97;5094699;28;20265;-80
2022/05/03 07:52:21;;;;;;;18.70;17.60;;;;;;;-141.02;100.00;55844.97;5095089;28;20198;-83
2022/05/03 07:54:48;;;;;;;19.05;17.95;;;;;;;-141.02;100.00;55844.97;5094644;28;20189;-82
2022/05/03 07:57:16;;;;;;;18.30;17.20;;;;;;;-141.02;100.00;55844.97;5095222;28;20197;-83
2022/05/03 07:59:43;;;;;;;17.50;16.52;;;;;;;-141.02;100.00;55844.97;5094558;28;20240;-83
2022/05/03 08:02:10;;;;;;;18.33;17.33;;;;;;;-141.02;100.00;55844.97;5094844;28;20226;-79
2022/05/03 08:04:39;;;;;;;18.33;17.33;;;;;;;-141.02;100.00;55844.97;5094497;28;20294;-82
2022/05/03 08:07:06;;;;;;;17.48;16.48;;;;;;;-141.02;100.00;55844.97;5094583;28;20285;-84
2022/05/03 08:09:34;;;;;;;16.80;15.90;;;;;;;-141.02;100.00;55844.97;5094712;28;20629;-84
2022/05/03 08:12:01;;;;;;;16.80;15.90;;;;;;;-141.02;100.00;55844.97;5094465;28;20194;-84
2022/05/03 08:14:30;;;;;;;16.90;15.90;;;;;;;-141.02;100.00;55844.97;5094343;28;20664;-81
2022/05/03 08:16:57;;;;;;;16.45;15.55;;;;;;;-141.02;100.00;55844.97;5094499;28;20197;-80
2022/05/03 08:19:24;;;;;;;15.73;14.93;;;;;;;-141.02;100.00;55844.97;5094631;28;20285;-81
2022/05/03 08:21:53;;;;;;;16.27;15.38;;;;;;;-141.02;100.00;55844.97;5094578;28;20255;-80
2022/05/03 08:24:20;;;;;;;16.60;15.70;;;;;;;-141.02;100.00;55844.97;5092915;28;20205;-82
2022/05/03 08:26:47;;;;;;;16.80;15.80;;;;;;;-141.02;100.00;55844.97;5094855;28;20193;-81
2022/05/03 08:29:14;;;;;;;16.98;15.98;;;;;;;-141.02;100.00;55844.97;5094626;28;20641;-81
2022/05/03 08:31:43;;;;;;;16.50;15.60;;;;;;;-141.02;100.00;55844.97;5093932;28;20193;-79
2022/05/03 08:34:10;;;;;;;16.63;15.73;;;;;;;-141.02;100.00;55844.97;5094097;28;20189;-82
2022/05/03 08:36:38;;;;;;;16.58;15.65;;;;;;;-141.02;100.00;55844.97;5094289;28;20256;-83
2022/05/03 08:42:07;;;;;;;17.00;16.10;;;;;;;-141.02;100.00;55844.97;5094189;28;20192;-83
2022/05/03 08:44:35;;;;;;;16.20;15.30;;;;;;;-141.02;100.00;55844.97;5094045;28;20189;-82
2022/05/03 08:47:04;;;;;;;16.20;15.30;;;;;;;-141.02;100.00;55844.97;5093692;28;20676;-80
2022/05/03 08:49:39;;;;;;;15.82;15.02;;;;;;;-141.02;100.00;55844.97;5093746;28;20229;-82
2022/05/03 08:52:08;;;;;;;16.20;15.30;;;;;;;-141.02;100.00;55844.97;5093817;28;20221;-82
2022/05/03 08:54:38;;;;;;;15.85;15.05;;;;;;;-141.02;100.00;55844.97;5093965;28;20220;-80
2022/05/03 08:57:09;;;;;;;15.50;14.70;;;;;;;-141.02;100.00;55844.97;5093791;28;20193;-82
2022/05/03 08:59:38;;;;;;;15.27;14.57;;;;;;;-141.02;100.00;55844.97;5093856;28;20197;-82
2022/05/03 09:02:06;;;;;;;15.02;14.32;;;;;;;-141.02;100.00;55844.97;5093799;28;20202;-81
2022/05/03 09:04:34;;;;;;;15.95;15.15;;;;;;;-141.02;100.00;55844.97;5093222;28;20233;-83
2022/05/03 09:07:19;;;;;;;16.15;15.25;;;;;;;-141.02;100.00;55844.97;5093613;28;20196;-83
2022/05/03 09:09:46;;;;;;;17.33;16.42;;;;;;;-141.02;100.00;55844.97;5093250;28;20209;-82
2022/05/03 09:12:26;;;;;;;15.73;15.02;;;;;;;-141.02;100.00;55844.97;5094150;28;20198;-82
2022/05/03 09:14:54;;;;;;;15.50;14.80;;;;;;;-141.02;100.00;55844.97;5093376;28;20711;-82
2022/05/03 09:17:44;;;;;;;16.70;15.80;;;;;;;-141.02;100.00;55844.97;5093291;28;20202;-82
2022/05/03 09:25:48;;;;;;;21.00;19.90;;;;;;;-141.02;100.00;55844.97;5093595;28;20239;-82
2022/05/03 09:28:16;;;;;;;21.50;20.30;;;;;;;-141.02;100.00;55844.97;5092847;28;20242;-84
2022/05/03 09:30:50;;;;;;;21.85;20.67;;;;;;;-141.02;100.00;55844.97;5093129;28;20233;-85
2022/05/03 09:33:20;;;;;;;21.27;20.17;;;;;;;-141.02;100.00;55844.97;5093413;28;20186;-83
2022/05/03 09:35:48;;;;;;;21.20;20.10;;;;;;;-141.02;100.00;55844.97;5093232;28;20668;-82
2022/05/03 09:38:16;;;;;;;21.80;20.63;;;;;;;-141.02;100.00;55844.97;5093122;28;20202;-84
2022/05/03 09:40:44;;;;;;;20.10;19.10;;;;;;;-141.02;100.00;55844.97;5093625;28;20206;-82
2022/05/03 09:43:12;;;;;;;21.25;20.15;;;;;;;-141.02;100.00;55844.97;5092419;28;20254;-83
2022/05/03 09:45:39;;;;;;;21.85;20.65;;;;;;;-141.02;100.00;55844.97;5093314;28;20193;-81
2022/05/03 09:48:07;;;;;;;22.10;20.90;;;;;;;-141.02;100.00;55844.97;5093420;28;20248;-81
2022/05/03 09:50:40;;;;;;;21.70;20.50;;;;;;;-141.02;100.00;55844.97;5092791;28;20260;-81
2022/05/03 09:53:10;;;;;;;22.27;21.08;;;;;;;-141.02;100.00;55844.97;5093300;28;20272;-80
2022/05/03 09:55:38;;;;;;;22.42;21.13;;;;;;;-141.02;100.00;55844.97;5092909;28;20284;-84
2022/05/03 09:58:07;;;;;;;22.35;21.05;;;;;;;-141.02;100.00;55844.97;5092357;28;20201;-82
2022/05/03 10:00:35;;;;;;;21.70;20.50;;;;;;;-141.02;100.00;55844.97;5092270;28;20248;-79
2022/05/03 10:03:04;;;;;;;22.42;21.13;;;;;;;-141.02;100.00;55844.97;5092720;28;20270;-83
2022/05/03 10:05:31;;;;;;;21.75;20.45;;;;;;;-141.02;100.00;55844.97;5092602;28;20229;-84
2022/05/03 10:08:00;;;;;;;21.17;19.98;;;;;;;-141.02;100.00;55844.97;5092694;28;20630;-82
2022/05/03 10:10:28;;;;;;;20.60;19.40;;;;;;;-141.02;100.00;55844.97;5092811;28;20594;-80
2022/05/03 10:12:55;;;;;;;20.33;19.13;;;;;;;-141.02;100.00;55844.97;5092200;28;20674;-80
2022/05/03 10:21:00;;;;;;;19.92;18.73;;;;;;;-141.02;100.00;55844.97;5093039;28;20231;-78
2022/05/03 10:23:32;;;;;;;20.13;18.92;;;;;;;-141.02;100.00;55844.97;5092374;28;20197;-78
2022/05/03 10:26:01;;;;;;;20.35;19.15;;;;;;;-141.02;100.00;55844.97;5092485;28;20208;-78
2022/05/03 10:29:08;;;;;;;19.10;18.00;;;;;;;-141.02;100.00;55844.97;5092133;28;20198;-80
2022/05/03 10:31:56;;;;;;;19.75;18.55;;;;;;;-141.02;100.00;55844.97;5092360;28;20193;-79
2022/05/03 10:34:51;;;;;;;22.15;20.75;;;;;;;-141.02;100.00;55844.97;5091944;28;20198;-79
2022/05/03 10:37:19;;;;;;;18.83;17.73;;;;;;;-141.02;100.00;55844.97;5092194;28;20197;-79
2022/05/03 10:39:53;;;;;;;18.80;17.70;;;;;;;-141.02;100.00;55844.97;5092002;28;20686;-77
2022/05/03 10:42:24;;;;;;;18.50;17.40;;;;;;;-141.02;100.00;55844.97;5091924;28;20192;-78
2022/05/03 10:45:03;;;;;;;18.67;17.58;;;;;;;-141.02;100.00;55844.97;5091943;28;20193;-78
2022/05/03 10:47:49;;;;;;;17.95;16.85;;;;;;;-141.02;100.00;55844.97;5091841;28;20197;-78
2022/05/03 10:50:22;;;;;;;18.05;16.95;;;;;;;-141.02;100.00;55844.97;5092048;28;20274;-78
2022/05/03 10:53:17;;;;;;;17.63;16.63;;;;;;;-141.02;100.00;55844.97;5092115;28;20194;-78
2022/05/03 10:56:07;;;;;;;17.98;16.88;;;;;;;-141.02;100.00;55844.97;5095353;28;20613;-79
2022/05/03 10:58:35;;;;;;;17.33;16.33;;;;;;;-141.02;100.00;55844.97;5096295;28;20198;-76
2022/05/03 11:01:07;;;;;;;17.13;16.13;;;;;;;-141.02;100.00;55844.97;5095974;28;20229;-74
2022/05/03 11:03:35;;;;;;;17.23;16.23;;;;;;;-141.02;100.00;55844.97;5095396;28;20733;-76
2022/05/03 11:06:41;;;;;;;16.95;16.05;;;;;;;-141.02;100.00;55844.97;5095894;28;20243;-76
2022/05/03 11:09:15;;;;;;;17.23;16.33;;;;;;;-141.02;100.00;55844.97;5083325;28;20233;-76
2022/05/03 11:11:58;;;;;;;17.35;16.45;;;;;;;-141.02;100.00;55844.97;5096074;28;20190;-72
2022/05/03 11:14:53;;;;;;;17.20;16.30;;;;;;;-141.02;100.00;55844.97;5095421;28;20221;-76
2022/05/03 11:17:20;;;;;;;16.67;15.88;;;;;;;-141.02;100.00;55844.97;5095760;28;20636;-75
2022/05/03 11:19:53;;;;;;;16.70;15.90;;;;;;;-141.02;100.00;55844.97;5095572;28;20228;-76
2022/05/03 11:22:21;;;;;;;16.90;16.10;;;;;;;-141.02;100.00;55844.97;5095280;28;20192;-76
2022/05/03 11:24:50;;;;;;;16.95;16.15;;;;;;;-141.02;100.00;55844.97;5095507;28;20201;-77
2022/05/03 11:27:20;;;;;;;17.05;16.25;;;;;;;-141.02;100.00;55844.97;5095460;28;20223;-76
2022/05/03 11:29:48;;;;;;;16.27;15.57;;;;;;;-141.02;100.00;55844.97;5095299;28;20226;-75
2022/05/03 11:32:16;;;;;;;17.20;16.40;;;;;;;-141.02;100.00;55844.97;5095340;28;20228;-75
2022/05/03 11:34:44;;;;;;;17.05;16.35;;;;;;;-141.02;100.00;55844.97;5095061;28;20236;-75
2022/05/03 11:37:11;;;;;;;17.15;16.35;;;;;;;-141.02;100.00;55844.97;5095101;28;20671;-75